sensor_id;sensor_type;location;lat;lon;timestamp;temperature;humidity
15997;DHT22;8103;51.340;12.326;2024-01-15T00:00:43;1.70;99.90
15997;DHT22;8103;51.340;12.326;2024-01-15T00:03:10;1.80;99.90
15997;DHT22;8103;51.340;12.326;2024-01-15T00:05:37;1.70;99.90
15997;DHT22;8103;51.340;12.326;2024-01-15T00:08:05;1.70;99.90
15997;DHT22;8103;51.340;12.326;2024-01-15T00:10:31;1.70;99.90
15997;DHT22;8103;51.340;12.326;2024-01-15T00:12:58;1.70;99.90
15997;DHT22;8103;51.340;12.326;2024-01-15T00:15:25;1.70;99.90
15997;DHT22;8103;51.340;12.326;2024-01-15T00:17:53;1.70;99.90
15997;DHT22;8103;51.340;12.326;2024-01-15T00:20:20;1.70;99.90
15997;DHT22;8103;51.340;12.326;2024-01-15T00:22:46;1.70;99.90
15997;DHT22;8103;51.340;12.326;2024-01-15T00:25:13;1.70;99.90
15997;DHT22;8103;51.340;12.326;2024-01-15T00:27:40;1.70;99.90
15997;DHT22;8103;51.340;12.326;2024-01-15T00:30:07;1.60;99.90
15997;DHT22;8103;51.340;12.326;2024-01-15T00:32:34;1.60;99.90
15997;DHT22;8103;51.340;12.326;2024-01-15T00:35:01;1.60;99.90
15997;DHT22;8103;51.340;12.326;2024-01-15T00:37:27;1.60;99.90
15997;DHT22;8103;51.340;12.326;2024-01-15T00:39:54;1.60;99.90
15997;DHT22;8103;51.340;12.326;2024-01-15T00:42:21;1.60;99.90
15997;DHT22;8103;51.340;12.326;2024-01-15T00:44:47;1.50;99.90
15997;DHT22;8103;51.340;12.326;2024-01-15T00:47:14;1.60;99.90
15997;DHT22;8103;51.340;12.326;2024-01-15T00:49:41;1.60;99.90
15997;DHT22;8103;51.340;12.326;2024-01-15T00:52:11;1.50;99.90
15997;DHT22;8103;51.340;12.326;2024-01-15T00:54:37;1.60;99.90
15997;DHT22;8103;51.340;12.326;2024-01-15T00:57:05;1.60;99.90
15997;DHT22;8103;51.340;12.326;2024-01-15T00:59:32;1.60;99.90
15997;DHT22;8103;51.340;12.326;2024-01-15T01:01:59;1.60;99.90
15997;DHT22;8103;51.340;12.326;2024-01-15T01:04:26;1.60;99.90
15997;DHT22;8103;51.340;12.326;2024-01-15T01:06:53;1.60;99.90
15997;DHT22;8103;51.340;12.326;2024-01-15T01:09:19;1.60;99.90
15997;DHT22;8103;51.340;12.326;2024-01-15T01:11:46;1.60;99.90
15997;DHT22;8103;51.340;12.326;2024-01-15T01:14:16;1.60;99.90
15997;DHT22;8103;51.340;12.326;2024-01-15T01:16:43;1.60;99.90
15997;DHT22;8103;51.340;12.326;2024-01-15T01:19:09;1.60;99.90
15997;DHT22;8103;51.340;12.326;2024-01-15T01:21:36;1.60;99.90
15997;DHT22;8103;51.340;12.326;2024-01-15T01:24:03;1.60;99.90
15997;DHT22;8103;51.340;12.326;2024-01-15T01:26:30;1.60;99.90
15997;DHT22;8103;51.340;12.326;2024-01-15T01:29:00;1.60;99.90
15997;DHT22;8103;51.340;12.326;2024-01-15T01:31:27;1.60;99.90
15997;DHT22;8103;51.340;12.326;2024-01-15T01:33:54;1.60;99.90
15997;DHT22;8103;51.340;12.326;2024-01-15T01:36:21;1.60;99.90
15997;DHT22;8103;51.340;12.326;2024-01-15T01:38:48;1.60;99.90
15997;DHT22;8103;51.340;12.326;2024-01-15T01:41:17;1.60;99.90
15997;DHT22;8103;51.340;12.326;2024-01-15T01:43:45;1.50;99.90
15997;DHT22;8103;51.340;12.326;2024-01-15T01:46:12;1.50;99.90
15997;DHT22;8103;51.340;12.326;2024-01-15T01:48:39;1.50;99.90
15997;DHT22;8103;51.340;12.326;2024-01-15T01:51:07;1.60;99.90
15997;DHT22;8103;51.340;12.326;2024-01-15T01:53:35;1.50;99.90
15997;DHT22;8103;51.340;12.326;2024-01-15T01:56:04;1.50;99.90
15997;DHT22;8103;51.340;12.326;2024-01-15T01:58:32;1.40;99.90
15997;DHT22;8103;51.340;12.326;2024-01-15T02:01:00;1.30;99.90
15997;DHT22;8103;51.340;12.326;2024-01-15T02:03:27;1.30;99.90
15997;DHT22;8103;51.340;12.326;2024-01-15T02:05:59;1.30;99.90
15997;DHT22;8103;51.340;12.326;2024-01-15T02:08:26;1.20;99.90
15997;DHT22;8103;51.340;12.326;2024-01-15T02:10:53;1.20;99.90
15997;DHT22;8103;51.340;12.326;2024-01-15T02:13:20;1.20;99.90
15997;DHT22;8103;51.340;12.326;2024-01-15T02:15:47;1.10;99.90
15997;DHT22;8103;51.340;12.326;2024-01-15T02:18:13;1.10;99.90
15997;DHT22;8103;51.340;12.326;2024-01-15T02:20:40;1.10;99.90
15997;DHT22;8103;51.340;12.326;2024-01-15T02:23:09;1.10;99.90
15997;DHT22;8103;51.340;12.326;2024-01-15T02:25:41;1.10;99.90
15997;DHT22;8103;51.340;12.326;2024-01-15T02:28:10;1.10;99.90
15997;DHT22;8103;51.340;12.326;2024-01-15T02:30:38;1.10;99.90
15997;DHT22;8103;51.340;12.326;2024-01-15T02:33:08;1.10;99.90
15997;DHT22;8103;51.340;12.326;2024-01-15T02:35:36;1.10;99.90
15997;DHT22;8103;51.340;12.326;2024-01-15T02:38:04;1.10;99.90
15997;DHT22;8103;51.340;12.326;2024-01-15T02:40:31;1.10;99.90
15997;DHT22;8103;51.340;12.326;2024-01-15T02:42:58;1.10;99.90
15997;DHT22;8103;51.340;12.326;2024-01-15T02:45:25;1.10;99.90
15997;DHT22;8103;51.340;12.326;2024-01-15T02:47:52;1.10;99.90
15997;DHT22;8103;51.340;12.326;2024-01-15T02:50:18;1.10;99.90
15997;DHT22;8103;51.340;12.326;2024-01-15T02:52:45;1.20;99.90
15997;DHT22;8103;51.340;12.326;2024-01-15T02:55:12;1.20;99.90
15997;DHT22;8103;51.340;12.326;2024-01-15T02:57:39;1.20;99.90
15997;DHT22;8103;51.340;12.326;2024-01-15T03:00:06;1.20;99.90
15997;DHT22;8103;51.340;12.326;2024-01-15T03:02:37;1.10;99.90
15997;DHT22;8103;51.340;12.326;2024-01-15T03:05:10;1.10;99.90
15997;DHT22;8103;51.340;12.326;2024-01-15T03:07:37;1.10;99.90
15997;DHT22;8103;51.340;12.326;2024-01-15T03:10:06;1.10;99.90
15997;DHT22;8103;51.340;12.326;2024-01-15T03:12:33;1.00;99.90
15997;DHT22;8103;51.340;12.326;2024-01-15T03:15:00;1.00;99.90
15997;DHT22;8103;51.340;12.326;2024-01-15T03:17:26;1.00;99.90
15997;DHT22;8103;51.340;12.326;2024-01-15T03:19:53;0.90;99.90
15997;DHT22;8103;51.340;12.326;2024-01-15T03:22:20;0.90;99.90
15997;DHT22;8103;51.340;12.326;2024-01-15T03:24:47;0.80;99.90
15997;DHT22;8103;51.340;12.326;2024-01-15T03:27:14;0.80;99.90
15997;DHT22;8103;51.340;12.326;2024-01-15T03:29:41;0.80;99.90
15997;DHT22;8103;51.340;12.326;2024-01-15T03:32:07;0.80;99.90
15997;DHT22;8103;51.340;12.326;2024-01-15T03:34:34;0.80;99.90
15997;DHT22;8103;51.340;12.326;2024-01-15T03:37:01;0.70;99.90
15997;DHT22;8103;51.340;12.326;2024-01-15T03:39:30;0.70;99.90
15997;DHT22;8103;51.340;12.326;2024-01-15T03:41:57;0.70;99.90
15997;DHT22;8103;51.340;12.326;2024-01-15T03:44:24;0.70;99.90
15997;DHT22;8103;51.340;12.326;2024-01-15T03:46:51;0.60;99.90
15997;DHT22;8103;51.340;12.326;2024-01-15T03:49:17;0.60;99.90
15997;DHT22;8103;51.340;12.326;2024-01-15T03:51:45;0.60;99.90
15997;DHT22;8103;51.340;12.326;2024-01-15T03:54:11;0.60;99.90
15997;DHT22;8103;51.340;12.326;2024-01-15T03:56:38;0.50;99.90
15997;DHT22;8103;51.340;12.326;2024-01-15T03:59:05;0.60;99.90
15997;DHT22;8103;51.340;12.326;2024-01-15T04:01:31;0.60;99.90
15997;DHT22;8103;51.340;12.326;2024-01-15T04:03:58;0.60;99.90
15997;DHT22;8103;51.340;12.326;2024-01-15T04:06:25;0.70;99.90
15997;DHT22;8103;51.340;12.326;2024-01-15T04:08:52;1.00;99.90
15997;DHT22;8103;51.340;12.326;2024-01-15T04:11:19;0.80;99.90
15997;DHT22;8103;51.340;12.326;2024-01-15T04:13:45;0.80;99.90
15997;DHT22;8103;51.340;12.326;2024-01-15T04:16:12;0.90;99.90
15997;DHT22;8103;51.340;12.326;2024-01-15T04:18:39;1.00;99.90
15997;DHT22;8103;51.340;12.326;2024-01-15T04:21:06;1.00;99.90
15997;DHT22;8103;51.340;12.326;2024-01-15T04:23:33;1.00;99.90
15997;DHT22;8103;51.340;12.326;2024-01-15T04:25:59;1.00;99.90
15997;DHT22;8103;51.340;12.326;2024-01-15T04:28:26;1.00;99.90
15997;DHT22;8103;51.340;12.326;2024-01-15T04:30:53;1.00;99.90
15997;DHT22;8103;51.340;12.326;2024-01-15T04:33:19;0.90;99.90
15997;DHT22;8103;51.340;12.326;2024-01-15T04:35:46;0.90;99.90
15997;DHT22;8103;51.340;12.326;2024-01-15T04:38:13;0.80;99.90
15997;DHT22;8103;51.340;12.326;2024-01-15T04:40:40;0.80;99.90
15997;DHT22;8103;51.340;12.326;2024-01-15T04:43:07;0.80;99.90
15997;DHT22;8103;51.340;12.326;2024-01-15T04:45:34;0.70;99.90
15997;DHT22;8103;51.340;12.326;2024-01-15T04:48:01;0.70;99.90
15997;DHT22;8103;51.340;12.326;2024-01-15T04:50:28;0.70;99.90
15997;DHT22;8103;51.340;12.326;2024-01-15T04:52:55;0.70;99.90
15997;DHT22;8103;51.340;12.326;2024-01-15T04:55:21;0.70;99.90
15997;DHT22;8103;51.340;12.326;2024-01-15T04:57:48;0.80;99.90
15997;DHT22;8103;51.340;12.326;2024-01-15T05:00:15;0.80;99.90
15997;DHT22;8103;51.340;12.326;2024-01-15T05:02:43;0.90;99.90
15997;DHT22;8103;51.340;12.326;2024-01-15T05:05:09;0.90;99.90
15997;DHT22;8103;51.340;12.326;2024-01-15T05:07:36;0.90;99.90
15997;DHT22;8103;51.340;12.326;2024-01-15T05:10:03;0.90;99.90
15997;DHT22;8103;51.340;12.326;2024-01-15T05:12:30;0.90;99.90
15997;DHT22;8103;51.340;12.326;2024-01-15T05:14:57;1.00;99.90
15997;DHT22;8103;51.340;12.326;2024-01-15T05:17:23;1.00;99.90
15997;DHT22;8103;51.340;12.326;2024-01-15T05:19:50;1.00;99.90
15997;DHT22;8103;51.340;12.326;2024-01-15T05:22:17;1.00;99.90
15997;DHT22;8103;51.340;12.326;2024-01-15T05:24:43;1.00;99.90
15997;DHT22;8103;51.340;12.326;2024-01-15T05:27:10;1.10;99.90
15997;DHT22;8103;51.340;12.326;2024-01-15T05:29:37;1.10;99.90
15997;DHT22;8103;51.340;12.326;2024-01-15T05:32:04;1.10;99.90
15997;DHT22;8103;51.340;12.326;2024-01-15T05:34:30;1.10;99.90
15997;DHT22;8103;51.340;12.326;2024-01-15T05:36:57;1.10;99.90
15997;DHT22;8103;51.340;12.326;2024-01-15T05:39:24;1.00;99.90
15997;DHT22;8103;51.340;12.326;2024-01-15T05:41:51;0.90;99.90
15997;DHT22;8103;51.340;12.326;2024-01-15T05:44:17;0.90;99.90
15997;DHT22;8103;51.340;12.326;2024-01-15T05:46:44;0.80;99.90
15997;DHT22;8103;51.340;12.326;2024-01-15T05:49:10;0.90;99.90
15997;DHT22;8103;51.340;12.326;2024-01-15T05:51:37;0.90;99.90
15997;DHT22;8103;51.340;12.326;2024-01-15T05:54:04;0.90;99.90
15997;DHT22;8103;51.340;12.326;2024-01-15T05:56:31;0.90;99.90
15997;DHT22;8103;51.340;12.326;2024-01-15T05:58:57;0.90;99.90
15997;DHT22;8103;51.340;12.326;2024-01-15T06:01:24;1.00;99.90
15997;DHT22;8103;51.340;12.326;2024-01-15T06:03:52;1.00;99.90
15997;DHT22;8103;51.340;12.326;2024-01-15T06:06:18;1.00;99.90
15997;DHT22;8103;51.340;12.326;2024-01-15T06:08:45;1.00;99.90
15997;DHT22;8103;51.340;12.326;2024-01-15T06:11:12;1.00;99.90
15997;DHT22;8103;51.340;12.326;2024-01-15T06:13:39;0.90;99.90
15997;DHT22;8103;51.340;12.326;2024-01-15T06:16:14;0.90;99.90
15997;DHT22;8103;51.340;12.326;2024-01-15T06:18:41;1.00;99.90
15997;DHT22;8103;51.340;12.326;2024-01-15T06:21:08;0.90;99.90
15997;DHT22;8103;51.340;12.326;2024-01-15T06:23:37;1.00;99.90
15997;DHT22;8103;51.340;12.326;2024-01-15T06:26:04;1.00;99.90
15997;DHT22;8103;51.340;12.326;2024-01-15T06:28:31;1.10;99.90
15997;DHT22;8103;51.340;12.326;2024-01-15T06:30:58;1.10;99.90
15997;DHT22;8103;51.340;12.326;2024-01-15T06:33:25;1.10;99.90
15997;DHT22;8103;51.340;12.326;2024-01-15T06:35:52;1.10;99.90
15997;DHT22;8103;51.340;12.326;2024-01-15T06:38:20;1.10;99.90
15997;DHT22;8103;51.340;12.326;2024-01-15T06:40:46;1.10;99.90
15997;DHT22;8103;51.340;12.326;2024-01-15T06:43:16;1.20;99.90
15997;DHT22;8103;51.340;12.326;2024-01-15T06:45:44;1.20;99.90
15997;DHT22;8103;51.340;12.326;2024-01-15T06:51:58;1.20;99.90
15997;DHT22;8103;51.340;12.326;2024-01-15T06:54:25;1.20;99.90
15997;DHT22;8103;51.340;12.326;2024-01-15T07:00:34;1.20;99.90
15997;DHT22;8103;51.340;12.326;2024-01-15T07:03:01;1.10;99.90
15997;DHT22;8103;51.340;12.326;2024-01-15T07:05:27;1.10;99.90
15997;DHT22;8103;51.340;12.326;2024-01-15T07:07:56;1.10;99.90
15997;DHT22;8103;51.340;12.326;2024-01-15T07:10:23;1.10;99.90
15997;DHT22;8103;51.340;12.326;2024-01-15T07:12:50;1.10;99.90
15997;DHT22;8103;51.340;12.326;2024-01-15T07:15:16;1.10;99.90
15997;DHT22;8103;51.340;12.326;2024-01-15T07:17:43;1.10;99.90
15997;DHT22;8103;51.340;12.326;2024-01-15T07:20:10;1.10;99.90
15997;DHT22;8103;51.340;12.326;2024-01-15T07:22:37;1.10;99.90
15997;DHT22;8103;51.340;12.326;2024-01-15T07:25:05;1.10;99.90
15997;DHT22;8103;51.340;12.326;2024-01-15T07:27:32;1.20;99.90
15997;DHT22;8103;51.340;12.326;2024-01-15T07:29:59;1.20;99.90
15997;DHT22;8103;51.340;12.326;2024-01-15T07:32:27;1.20;99.90
15997;DHT22;8103;51.340;12.326;2024-01-15T07:34:54;1.20;99.90
15997;DHT22;8103;51.340;12.326;2024-01-15T07:37:21;1.20;99.90
15997;DHT22;8103;51.340;12.326;2024-01-15T07:39:49;1.20;99.90
15997;DHT22;8103;51.340;12.326;2024-01-15T07:42:16;1.20;99.90
15997;DHT22;8103;51.340;12.326;2024-01-15T07:44:43;1.20;99.90
15997;DHT22;8103;51.340;12.326;2024-01-15T07:47:10;1.30;99.90
15997;DHT22;8103;51.340;12.326;2024-01-15T07:49:36;1.30;99.90
15997;DHT22;8103;51.340;12.326;2024-01-15T07:52:03;1.30;99.90
15997;DHT22;8103;51.340;12.326;2024-01-15T07:54:31;1.30;99.90
15997;DHT22;8103;51.340;12.326;2024-01-15T07:57:02;1.20;99.90
15997;DHT22;8103;51.340;12.326;2024-01-15T07:59:29;1.20;99.90
15997;DHT22;8103;51.340;12.326;2024-01-15T08:01:58;1.30;99.90
15997;DHT22;8103;51.340;12.326;2024-01-15T08:04:25;2.00;99.90
15997;DHT22;8103;51.340;12.326;2024-01-15T08:06:52;2.90;99.90
15997;DHT22;8103;51.340;12.326;2024-01-15T08:09:19;3.70;99.90
15997;DHT22;8103;51.340;12.326;2024-01-15T08:11:46;4.20;99.90
15997;DHT22;8103;51.340;12.326;2024-01-15T08:14:13;4.10;99.20
15997;DHT22;8103;51.340;12.326;2024-01-15T08:16:40;3.70;99.10
15997;DHT22;8103;51.340;12.326;2024-01-15T08:19:07;3.20;99.70
15997;DHT22;8103;51.340;12.326;2024-01-15T08:21:34;2.70;99.90
15997;DHT22;8103;51.340;12.326;2024-01-15T08:24:02;2.30;99.90
15997;DHT22;8103;51.340;12.326;2024-01-15T08:30:16;1.90;99.90
15997;DHT22;8103;51.340;12.326;2024-01-15T08:32:43;1.90;99.90
15997;DHT22;8103;51.340;12.326;2024-01-15T08:35:11;1.90;99.90
15997;DHT22;8103;51.340;12.326;2024-01-15T08:37:38;2.00;99.90
15997;DHT22;8103;51.340;12.326;2024-01-15T08:40:05;2.00;99.90
15997;DHT22;8103;51.340;12.326;2024-01-15T08:42:32;2.00;99.90
15997;DHT22;8103;51.340;12.326;2024-01-15T08:44:59;2.10;99.90
15997;DHT22;8103;51.340;12.326;2024-01-15T08:47:25;2.20;99.90
15997;DHT22;8103;51.340;12.326;2024-01-15T08:49:52;2.10;99.90
15997;DHT22;8103;51.340;12.326;2024-01-15T08:52:19;2.10;99.90
15997;DHT22;8103;51.340;12.326;2024-01-15T08:54:46;2.00;99.90
15997;DHT22;8103;51.340;12.326;2024-01-15T08:57:13;2.00;99.90
15997;DHT22;8103;51.340;12.326;2024-01-15T08:59:40;2.20;99.90
15997;DHT22;8103;51.340;12.326;2024-01-15T09:02:08;2.60;99.90
15997;DHT22;8103;51.340;12.326;2024-01-15T09:04:34;3.00;99.90
15997;DHT22;8103;51.340;12.326;2024-01-15T09:07:01;3.30;99.90
15997;DHT22;8103;51.340;12.326;2024-01-15T09:09:28;3.50;99.70
15997;DHT22;8103;51.340;12.326;2024-01-15T09:11:55;3.50;99.60
15997;DHT22;8103;51.340;12.326;2024-01-15T09:14:22;3.40;99.40
15997;DHT22;8103;51.340;12.326;2024-01-15T09:16:55;3.20;99.60
15997;DHT22;8103;51.340;12.326;2024-01-15T09:19:23;2.90;99.90
15997;DHT22;8103;51.340;12.326;2024-01-15T09:21:51;2.80;99.90
15997;DHT22;8103;51.340;12.326;2024-01-15T09:24:17;2.70;99.90
15997;DHT22;8103;51.340;12.326;2024-01-15T09:26:44;2.70;99.90
15997;DHT22;8103;51.340;12.326;2024-01-15T09:29:11;2.90;99.90
15997;DHT22;8103;51.340;12.326;2024-01-15T09:31:38;3.30;99.90
15997;DHT22;8103;51.340;12.326;2024-01-15T09:34:04;3.50;99.60
15997;DHT22;8103;51.340;12.326;2024-01-15T09:36:31;3.90;99.30
15997;DHT22;8103;51.340;12.326;2024-01-15T09:38:58;4.40;98.20
15997;DHT22;8103;51.340;12.326;2024-01-15T09:41:25;4.60;97.20
15997;DHT22;8103;51.340;12.326;2024-01-15T09:43:54;4.50;96.60
15997;DHT22;8103;51.340;12.326;2024-01-15T09:46:21;4.40;96.70
15997;DHT22;8103;51.340;12.326;2024-01-15T09:48:47;4.10;97.00
15997;DHT22;8103;51.340;12.326;2024-01-15T09:51:16;3.90;97.60
15997;DHT22;8103;51.340;12.326;2024-01-15T09:53:44;4.10;98.80
15997;DHT22;8103;51.340;12.326;2024-01-15T09:56:12;4.60;97.10
15997;DHT22;8103;51.340;12.326;2024-01-15T09:58:39;4.60;96.10
15997;DHT22;8103;51.340;12.326;2024-01-15T10:01:06;4.30;96.60
15997;DHT22;8103;51.340;12.326;2024-01-15T10:03:34;3.90;97.10
15997;DHT22;8103;51.340;12.326;2024-01-15T10:06:01;3.70;97.70
15997;DHT22;8103;51.340;12.326;2024-01-15T10:08:28;3.60;98.20
15997;DHT22;8103;51.340;12.326;2024-01-15T10:10:55;3.40;98.50
15997;DHT22;8103;51.340;12.326;2024-01-15T10:13:22;3.30;98.80
15997;DHT22;8103;51.340;12.326;2024-01-15T10:15:49;3.20;99.10
15997;DHT22;8103;51.340;12.326;2024-01-15T10:18:16;3.20;99.50
15997;DHT22;8103;51.340;12.326;2024-01-15T10:20:43;3.10;99.50
15997;DHT22;8103;51.340;12.326;2024-01-15T10:23:10;3.10;99.60
15997;DHT22;8103;51.340;12.326;2024-01-15T10:25:37;3.10;99.70
15997;DHT22;8103;51.340;12.326;2024-01-15T10:28:04;2.90;99.90
15997;DHT22;8103;51.340;12.326;2024-01-15T10:30:34;2.90;99.90
15997;DHT22;8103;51.340;12.326;2024-01-15T10:33:02;2.80;99.90
15997;DHT22;8103;51.340;12.326;2024-01-15T10:35:31;2.70;99.90
15997;DHT22;8103;51.340;12.326;2024-01-15T10:38:01;2.70;99.90
15997;DHT22;8103;51.340;12.326;2024-01-15T10:40:29;2.80;99.90
15997;DHT22;8103;51.340;12.326;2024-01-15T10:42:56;2.80;99.90
15997;DHT22;8103;51.340;12.326;2024-01-15T10:45:24;2.80;99.90
15997;DHT22;8103;51.340;12.326;2024-01-15T10:47:51;2.80;99.90
15997;DHT22;8103;51.340;12.326;2024-01-15T10:50:18;2.80;99.90
15997;DHT22;8103;51.340;12.326;2024-01-15T10:52:45;2.70;99.90
15997;DHT22;8103;51.340;12.326;2024-01-15T10:55:12;2.70;99.90
15997;DHT22;8103;51.340;12.326;2024-01-15T10:57:48;2.70;99.90
15997;DHT22;8103;51.340;12.326;2024-01-15T11:00:16;2.70;99.90
15997;DHT22;8103;51.340;12.326;2024-01-15T11:02:43;2.80;99.90
15997;DHT22;8103;51.340;12.326;2024-01-15T11:05:11;2.80;99.90
15997;DHT22;8103;51.340;12.326;2024-01-15T11:07:39;2.90;99.90
15997;DHT22;8103;51.340;12.326;2024-01-15T11:10:07;2.90;99.90
15997;DHT22;8103;51.340;12.326;2024-01-15T11:12:41;2.90;99.90
15997;DHT22;8103;51.340;12.326;2024-01-15T11:15:08;2.90;99.90
15997;DHT22;8103;51.340;12.326;2024-01-15T11:17:58;2.90;99.90
15997;DHT22;8103;51.340;12.326;2024-01-15T11:20:26;2.90;99.90
15997;DHT22;8103;51.340;12.326;2024-01-15T11:22:53;3.00;99.90
15997;DHT22;8103;51.340;12.326;2024-01-15T11:25:20;3.10;99.90
15997;DHT22;8103;51.340;12.326;2024-01-15T11:27:51;3.00;99.90
15997;DHT22;8103;51.340;12.326;2024-01-15T11:30:19;3.00;99.90
15997;DHT22;8103;51.340;12.326;2024-01-15T11:32:46;3.00;99.90
15997;DHT22;8103;51.340;12.326;2024-01-15T11:35:13;2.90;99.90
15997;DHT22;8103;51.340;12.326;2024-01-15T11:40:21;2.90;99.90
15997;DHT22;8103;51.340;12.326;2024-01-15T11:42:48;2.90;99.90
15997;DHT22;8103;51.340;12.326;2024-01-15T11:45:19;2.90;99.90
15997;DHT22;8103;51.340;12.326;2024-01-15T11:48:09;3.00;99.90
15997;DHT22;8103;51.340;12.326;2024-01-15T11:50:48;3.00;99.90
15997;DHT22;8103;51.340;12.326;2024-01-15T11:53:33;3.00;99.90
15997;DHT22;8103;51.340;12.326;2024-01-15T11:56:02;3.00;99.90
15997;DHT22;8103;51.340;12.326;2024-01-15T11:58:29;3.00;99.90
15997;DHT22;8103;51.340;12.326;2024-01-15T12:00:56;3.10;99.90
15997;DHT22;8103;51.340;12.326;2024-01-15T12:03:24;3.20;99.90
15997;DHT22;8103;51.340;12.326;2024-01-15T12:05:54;3.30;99.90
15997;DHT22;8103;51.340;12.326;2024-01-15T12:08:22;3.20;99.90
15997;DHT22;8103;51.340;12.326;2024-01-15T12:10:49;3.20;99.90
15997;DHT22;8103;51.340;12.326;2024-01-15T12:13:16;3.20;99.90
15997;DHT22;8103;51.340;12.326;2024-01-15T12:15:45;3.20;99.90
15997;DHT22;8103;51.340;12.326;2024-01-15T12:18:17;3.20;99.90
15997;DHT22;8103;51.340;12.326;2024-01-15T12:20:45;3.30;99.90
15997;DHT22;8103;51.340;12.326;2024-01-15T12:23:15;3.40;99.90
15997;DHT22;8103;51.340;12.326;2024-01-15T12:25:43;3.50;99.90
15997;DHT22;8103;51.340;12.326;2024-01-15T12:28:10;3.40;99.90
15997;DHT22;8103;51.340;12.326;2024-01-15T12:30:36;3.30;99.90
15997;DHT22;8103;51.340;12.326;2024-01-15T12:33:06;3.30;99.90
15997;DHT22;8103;51.340;12.326;2024-01-15T12:35:34;3.20;99.90
15997;DHT22;8103;51.340;12.326;2024-01-15T12:38:01;3.30;99.90
15997;DHT22;8103;51.340;12.326;2024-01-15T12:40:32;3.20;99.90
15997;DHT22;8103;51.340;12.326;2024-01-15T12:43:02;3.30;99.90
15997;DHT22;8103;51.340;12.326;2024-01-15T12:45:30;3.40;99.90
15997;DHT22;8103;51.340;12.326;2024-01-15T12:47:58;3.40;99.90
15997;DHT22;8103;51.340;12.326;2024-01-15T12:50:25;3.50;99.90
15997;DHT22;8103;51.340;12.326;2024-01-15T12:52:52;3.50;99.90
15997;DHT22;8103;51.340;12.326;2024-01-15T12:55:19;3.40;99.90
15997;DHT22;8103;51.340;12.326;2024-01-15T12:57:45;3.40;99.90
15997;DHT22;8103;51.340;12.326;2024-01-15T13:00:13;3.30;99.90
15997;DHT22;8103;51.340;12.326;2024-01-15T13:02:40;3.30;99.90
15997;DHT22;8103;51.340;12.326;2024-01-15T13:05:08;3.20;99.90
15997;DHT22;8103;51.340;12.326;2024-01-15T13:07:37;3.10;99.90
15997;DHT22;8103;51.340;12.326;2024-01-15T13:10:05;3.10;99.90
15997;DHT22;8103;51.340;12.326;2024-01-15T13:12:33;3.10;99.90
15997;DHT22;8103;51.340;12.326;2024-01-15T13:15:00;3.00;99.90
15997;DHT22;8103;51.340;12.326;2024-01-15T13:17:29;3.00;99.90
15997;DHT22;8103;51.340;12.326;2024-01-15T13:19:56;3.00;99.90
15997;DHT22;8103;51.340;12.326;2024-01-15T13:22:23;3.00;99.90
15997;DHT22;8103;51.340;12.326;2024-01-15T13:24:56;2.90;99.90
15997;DHT22;8103;51.340;12.326;2024-01-15T13:27:23;2.90;99.90
15997;DHT22;8103;51.340;12.326;2024-01-15T13:29:50;3.00;99.90
15997;DHT22;8103;51.340;12.326;2024-01-15T13:32:29;3.10;99.90
15997;DHT22;8103;51.340;12.326;2024-01-15T13:34:57;3.10;99.90
15997;DHT22;8103;51.340;12.326;2024-01-15T13:37:24;3.10;99.90
15997;DHT22;8103;51.340;12.326;2024-01-15T13:39:51;3.10;99.90
15997;DHT22;8103;51.340;12.326;2024-01-15T13:42:19;3.10;99.90
15997;DHT22;8103;51.340;12.326;2024-01-15T13:44:48;3.10;99.90
15997;DHT22;8103;51.340;12.326;2024-01-15T13:47:15;3.10;99.90
15997;DHT22;8103;51.340;12.326;2024-01-15T13:49:41;3.10;99.90
15997;DHT22;8103;51.340;12.326;2024-01-15T13:52:08;3.10;99.90
15997;DHT22;8103;51.340;12.326;2024-01-15T13:54:35;3.10;99.90
15997;DHT22;8103;51.340;12.326;2024-01-15T13:57:06;3.10;99.90
15997;DHT22;8103;51.340;12.326;2024-01-15T13:59:33;3.10;99.90
15997;DHT22;8103;51.340;12.326;2024-01-15T14:02:00;3.10;99.90
15997;DHT22;8103;51.340;12.326;2024-01-15T14:04:26;3.10;99.90
15997;DHT22;8103;51.340;12.326;2024-01-15T14:06:54;3.00;99.90
15997;DHT22;8103;51.340;12.326;2024-01-15T14:09:20;3.00;99.90
15997;DHT22;8103;51.340;12.326;2024-01-15T14:11:50;3.00;99.90
15997;DHT22;8103;51.340;12.326;2024-01-15T14:14:17;3.00;99.90
15997;DHT22;8103;51.340;12.326;2024-01-15T14:16:44;2.90;99.90
15997;DHT22;8103;51.340;12.326;2024-01-15T14:19:10;2.90;99.90
15997;DHT22;8103;51.340;12.326;2024-01-15T14:21:38;2.90;99.90
15997;DHT22;8103;51.340;12.326;2024-01-15T14:24:05;2.80;99.90
15997;DHT22;8103;51.340;12.326;2024-01-15T14:26:33;2.80;99.90
15997;DHT22;8103;51.340;12.326;2024-01-15T14:29:00;2.80;99.90
15997;DHT22;8103;51.340;12.326;2024-01-15T14:31:26;2.80;99.90
15997;DHT22;8103;51.340;12.326;2024-01-15T14:33:54;2.80;99.90
15997;DHT22;8103;51.340;12.326;2024-01-15T14:36:26;2.80;99.90
15997;DHT22;8103;51.340;12.326;2024-01-15T14:38:53;2.80;99.90
15997;DHT22;8103;51.340;12.326;2024-01-15T14:41:19;2.90;99.90
15997;DHT22;8103;51.340;12.326;2024-01-15T14:43:47;2.90;99.90
15997;DHT22;8103;51.340;12.326;2024-01-15T14:46:13;2.90;99.90
15997;DHT22;8103;51.340;12.326;2024-01-15T14:48:40;2.80;99.90
15997;DHT22;8103;51.340;12.326;2024-01-15T14:51:07;2.80;99.90
15997;DHT22;8103;51.340;12.326;2024-01-15T14:53:33;2.80;99.90
15997;DHT22;8103;51.340;12.326;2024-01-15T14:56:02;2.80;99.90
15997;DHT22;8103;51.340;12.326;2024-01-15T14:58:29;2.70;99.90
15997;DHT22;8103;51.340;12.326;2024-01-15T15:00:56;2.70;99.90
15997;DHT22;8103;51.340;12.326;2024-01-15T15:03:23;2.70;99.90
15997;DHT22;8103;51.340;12.326;2024-01-15T15:05:49;2.70;99.90
15997;DHT22;8103;51.340;12.326;2024-01-15T15:08:16;2.70;99.90
15997;DHT22;8103;51.340;12.326;2024-01-15T15:10:42;2.70;99.90
15997;DHT22;8103;51.340;12.326;2024-01-15T15:13:09;2.70;99.90
15997;DHT22;8103;51.340;12.326;2024-01-15T15:15:37;2.60;99.90
15997;DHT22;8103;51.340;12.326;2024-01-15T15:18:03;2.60;99.90
15997;DHT22;8103;51.340;12.326;2024-01-15T15:24:17;2.60;99.90
15997;DHT22;8103;51.340;12.326;2024-01-15T15:26:44;2.60;99.90
15997;DHT22;8103;51.340;12.326;2024-01-15T15:29:11;2.60;99.90
15997;DHT22;8103;51.340;12.326;2024-01-15T15:31:38;2.50;99.90
15997;DHT22;8103;51.340;12.326;2024-01-15T15:34:05;2.50;99.90
15997;DHT22;8103;51.340;12.326;2024-01-15T15:36:32;2.50;99.90
15997;DHT22;8103;51.340;12.326;2024-01-15T15:38:59;2.50;99.90
15997;DHT22;8103;51.340;12.326;2024-01-15T15:41:25;2.40;99.90
15997;DHT22;8103;51.340;12.326;2024-01-15T15:43:54;2.40;99.90
15997;DHT22;8103;51.340;12.326;2024-01-15T15:46:21;2.40;99.90
15997;DHT22;8103;51.340;12.326;2024-01-15T15:48:48;2.40;99.90
15997;DHT22;8103;51.340;12.326;2024-01-15T15:51:15;2.40;99.90
15997;DHT22;8103;51.340;12.326;2024-01-15T15:53:42;2.30;99.90
15997;DHT22;8103;51.340;12.326;2024-01-15T15:59:56;2.30;99.90
15997;DHT22;8103;51.340;12.326;2024-01-15T16:02:22;2.30;99.90
15997;DHT22;8103;51.340;12.326;2024-01-15T16:04:49;2.30;99.90
15997;DHT22;8103;51.340;12.326;2024-01-15T16:07:16;2.20;99.90